sensor_id;sensor_type;location;lat;lon;timestamp;temperature;humidity
21255;DHT22;10785;50.674;17.954;2023-04-24T00:01:17;14.00;99.90
21255;DHT22;10785;50.674;17.954;2023-04-24T00:03:46;14.00;99.90
21255;DHT22;10785;50.674;17.954;2023-04-24T00:06:15;14.00;99.90
21255;DHT22;10785;50.674;17.954;2023-04-24T00:08:46;14.00;99.90
21255;DHT22;10785;50.674;17.954;2023-04-24T00:11:14;14.00;99.90
21255;DHT22;10785;50.674;17.954;2023-04-24T00:13:43;14.10;99.90
21255;DHT22;10785;50.674;17.954;2023-04-24T00:16:12;14.10;99.90
21255;DHT22;10785;50.674;17.954;2023-04-24T00:18:40;14.10;99.90
21255;DHT22;10785;50.674;17.954;2023-04-24T00:21:09;14.20;99.90
21255;DHT22;10785;50.674;17.954;2023-04-24T00:23:37;14.20;99.90
21255;DHT22;10785;50.674;17.954;2023-04-24T00:26:07;14.20;99.90
21255;DHT22;10785;50.674;17.954;2023-04-24T00:28:36;14.20;99.90
21255;DHT22;10785;50.674;17.954;2023-04-24T00:31:05;14.20;99.90
21255;DHT22;10785;50.674;17.954;2023-04-24T00:33:33;14.20;99.90
21255;DHT22;10785;50.674;17.954;2023-04-24T00:36:02;14.20;99.90
21255;DHT22;10785;50.674;17.954;2023-04-24T00:38:31;14.20;99.90
21255;DHT22;10785;50.674;17.954;2023-04-24T00:40:59;14.20;99.90
21255;DHT22;10785;50.674;17.954;2023-04-24T00:43:29;14.20;99.90
21255;DHT22;10785;50.674;17.954;2023-04-24T00:45:58;14.10;99.90
21255;DHT22;10785;50.674;17.954;2023-04-24T00:48:29;14.10;99.90
21255;DHT22;10785;50.674;17.954;2023-04-24T00:50:59;14.10;99.90
21255;DHT22;10785;50.674;17.954;2023-04-24T00:53:27;14.10;99.90
21255;DHT22;10785;50.674;17.954;2023-04-24T00:55:56;14.00;99.90
21255;DHT22;10785;50.674;17.954;2023-04-24T00:58:25;14.00;99.90
21255;DHT22;10785;50.674;17.954;2023-04-24T01:00:56;14.00;99.90
21255;DHT22;10785;50.674;17.954;2023-04-24T01:03:28;14.00;99.90
21255;DHT22;10785;50.674;17.954;2023-04-24T01:05:59;13.90;99.90
21255;DHT22;10785;50.674;17.954;2023-04-24T01:08:29;13.90;99.90
21255;DHT22;10785;50.674;17.954;2023-04-24T01:10:58;13.90;99.90
21255;DHT22;10785;50.674;17.954;2023-04-24T01:13:27;13.90;99.90
21255;DHT22;10785;50.674;17.954;2023-04-24T01:15:57;13.90;99.90
21255;DHT22;10785;50.674;17.954;2023-04-24T01:18:27;13.90;99.90
21255;DHT22;10785;50.674;17.954;2023-04-24T01:20:58;13.90;99.90
21255;DHT22;10785;50.674;17.954;2023-04-24T01:23:28;13.90;99.90
21255;DHT22;10785;50.674;17.954;2023-04-24T01:25:57;13.90;99.90
21255;DHT22;10785;50.674;17.954;2023-04-24T01:28:26;14.00;99.90
21255;DHT22;10785;50.674;17.954;2023-04-24T01:30:54;14.10;99.90
21255;DHT22;10785;50.674;17.954;2023-04-24T01:33:24;14.10;99.90
21255;DHT22;10785;50.674;17.954;2023-04-24T01:35:52;14.10;99.90
21255;DHT22;10785;50.674;17.954;2023-04-24T01:38:21;14.10;99.90
21255;DHT22;10785;50.674;17.954;2023-04-24T01:40:51;14.10;99.90
21255;DHT22;10785;50.674;17.954;2023-04-24T01:43:21;14.00;99.90
21255;DHT22;10785;50.674;17.954;2023-04-24T01:45:49;14.00;99.90
21255;DHT22;10785;50.674;17.954;2023-04-24T01:48:18;14.00;99.90
21255;DHT22;10785;50.674;17.954;2023-04-24T01:50:47;14.00;99.90
21255;DHT22;10785;50.674;17.954;2023-04-24T01:53:16;14.00;99.90
21255;DHT22;10785;50.674;17.954;2023-04-24T01:55:44;14.00;99.90
21255;DHT22;10785;50.674;17.954;2023-04-24T01:58:14;14.00;99.90
21255;DHT22;10785;50.674;17.954;2023-04-24T02:00:43;14.00;99.90
21255;DHT22;10785;50.674;17.954;2023-04-24T02:03:11;14.00;99.90
21255;DHT22;10785;50.674;17.954;2023-04-24T02:05:40;14.10;99.90
21255;DHT22;10785;50.674;17.954;2023-04-24T02:08:11;14.10;99.90
21255;DHT22;10785;50.674;17.954;2023-04-24T02:10:40;14.10;99.90
21255;DHT22;10785;50.674;17.954;2023-04-24T02:13:09;14.10;99.00
21255;DHT22;10785;50.674;17.954;2023-04-24T02:15:39;14.20;95.60
21255;DHT22;10785;50.674;17.954;2023-04-24T02:18:07;14.20;92.20
21255;DHT22;10785;50.674;17.954;2023-04-24T02:20:37;14.30;89.20
21255;DHT22;10785;50.674;17.954;2023-04-24T02:23:05;14.40;81.50
21255;DHT22;10785;50.674;17.954;2023-04-24T02:25:34;14.50;74.20
21255;DHT22;10785;50.674;17.954;2023-04-24T02:28:03;14.50;70.60
21255;DHT22;10785;50.674;17.954;2023-04-24T02:30:33;14.60;65.10
21255;DHT22;10785;50.674;17.954;2023-04-24T02:36:25;14.60;56.10
21255;DHT22;10785;50.674;17.954;2023-04-24T02:38:53;14.60;57.50
21255;DHT22;10785;50.674;17.954;2023-04-24T02:41:22;14.60;55.60
21255;DHT22;10785;50.674;17.954;2023-04-24T02:43:50;14.60;55.70
21255;DHT22;10785;50.674;17.954;2023-04-24T02:46:19;14.60;56.20
21255;DHT22;10785;50.674;17.954;2023-04-24T02:48:48;14.60;54.60
21255;DHT22;10785;50.674;17.954;2023-04-24T02:51:16;14.60;53.20
21255;DHT22;10785;50.674;17.954;2023-04-24T02:53:46;14.60;50.50
21255;DHT22;10785;50.674;17.954;2023-04-24T02:56:15;14.60;51.10
21255;DHT22;10785;50.674;17.954;2023-04-24T02:58:44;14.60;48.80
21255;DHT22;10785;50.674;17.954;2023-04-24T03:01:12;14.60;48.30
21255;DHT22;10785;50.674;17.954;2023-04-24T03:03:41;14.60;48.40
21255;DHT22;10785;50.674;17.954;2023-04-24T03:06:10;14.60;43.90
21255;DHT22;10785;50.674;17.954;2023-04-24T03:08:39;14.60;41.50
21255;DHT22;10785;50.674;17.954;2023-04-24T03:11:09;14.70;40.10
21255;DHT22;10785;50.674;17.954;2023-04-24T03:13:37;14.70;38.30
21255;DHT22;10785;50.674;17.954;2023-04-24T03:16:06;14.70;36.70
21255;DHT22;10785;50.674;17.954;2023-04-24T03:18:35;14.70;37.70
21255;DHT22;10785;50.674;17.954;2023-04-24T03:21:05;14.70;36.30
21255;DHT22;10785;50.674;17.954;2023-04-24T03:23:34;14.70;36.60
21255;DHT22;10785;50.674;17.954;2023-04-24T03:26:03;14.70;36.20
21255;DHT22;10785;50.674;17.954;2023-04-24T03:28:36;14.60;38.00
21255;DHT22;10785;50.674;17.954;2023-04-24T03:31:05;14.60;36.70
21255;DHT22;10785;50.674;17.954;2023-04-24T03:33:36;14.60;38.20
21255;DHT22;10785;50.674;17.954;2023-04-24T03:36:06;14.50;39.90
21255;DHT22;10785;50.674;17.954;2023-04-24T03:38:39;14.50;42.20
21255;DHT22;10785;50.674;17.954;2023-04-24T03:41:26;14.40;43.60
21255;DHT22;10785;50.674;17.954;2023-04-24T03:44:09;14.40;48.10
21255;DHT22;10785;50.674;17.954;2023-04-24T03:46:38;14.30;51.90
21255;DHT22;10785;50.674;17.954;2023-04-24T03:49:07;14.20;54.00
21255;DHT22;10785;50.674;17.954;2023-04-24T03:51:40;14.20;55.40
21255;DHT22;10785;50.674;17.954;2023-04-24T03:54:16;14.20;59.70
21255;DHT22;10785;50.674;17.954;2023-04-24T03:56:45;14.10;67.70
21255;DHT22;10785;50.674;17.954;2023-04-24T03:59:15;14.10;69.00
21255;DHT22;10785;50.674;17.954;2023-04-24T04:01:49;14.10;69.70
21255;DHT22;10785;50.674;17.954;2023-04-24T04:04:17;14.00;71.90
21255;DHT22;10785;50.674;17.954;2023-04-24T04:06:46;14.00;73.50
21255;DHT22;10785;50.674;17.954;2023-04-24T04:09:15;13.90;74.60
21255;DHT22;10785;50.674;17.954;2023-04-24T04:11:45;13.90;76.10
21255;DHT22;10785;50.674;17.954;2023-04-24T04:14:15;13.90;77.30
21255;DHT22;10785;50.674;17.954;2023-04-24T04:16:47;13.80;79.20
21255;DHT22;10785;50.674;17.954;2023-04-24T04:19:18;13.80;80.60
21255;DHT22;10785;50.674;17.954;2023-04-24T04:21:46;13.80;83.50
21255;DHT22;10785;50.674;17.954;2023-04-24T04:24:45;13.70;87.00
21255;DHT22;10785;50.674;17.954;2023-04-24T04:27:14;13.70;90.60
21255;DHT22;10785;50.674;17.954;2023-04-24T04:30:02;13.60;91.10
21255;DHT22;10785;50.674;17.954;2023-04-24T04:32:39;13.60;90.50
21255;DHT22;10785;50.674;17.954;2023-04-24T04:35:08;13.60;90.00
21255;DHT22;10785;50.674;17.954;2023-04-24T04:37:37;13.60;89.60
21255;DHT22;10785;50.674;17.954;2023-04-24T04:40:30;13.60;90.60
21255;DHT22;10785;50.674;17.954;2023-04-24T04:43:03;13.60;91.30
21255;DHT22;10785;50.674;17.954;2023-04-24T04:45:42;13.50;91.30
21255;DHT22;10785;50.674;17.954;2023-04-24T04:48:27;13.50;90.50
21255;DHT22;10785;50.674;17.954;2023-04-24T04:50:58;13.50;90.30
21255;DHT22;10785;50.674;17.954;2023-04-24T04:53:28;13.60;88.50
21255;DHT22;10785;50.674;17.954;2023-04-24T04:55:57;13.60;85.00
21255;DHT22;10785;50.674;17.954;2023-04-24T04:58:33;13.60;88.30
21255;DHT22;10785;50.674;17.954;2023-04-24T05:01:04;13.60;91.50
21255;DHT22;10785;50.674;17.954;2023-04-24T05:03:39;13.70;92.00
21255;DHT22;10785;50.674;17.954;2023-04-24T05:06:12;13.70;88.90
21255;DHT22;10785;50.674;17.954;2023-04-24T05:08:41;13.80;85.80
21255;DHT22;10785;50.674;17.954;2023-04-24T05:11:16;13.80;81.40
21255;DHT22;10785;50.674;17.954;2023-04-24T05:14:01;14.00;72.70
21255;DHT22;10785;50.674;17.954;2023-04-24T05:16:38;14.10;65.40
21255;DHT22;10785;50.674;17.954;2023-04-24T05:19:09;14.20;59.30
21255;DHT22;10785;50.674;17.954;2023-04-24T05:21:41;14.30;51.10
21255;DHT22;10785;50.674;17.954;2023-04-24T05:24:10;14.40;51.00
21255;DHT22;10785;50.674;17.954;2023-04-24T05:26:46;14.40;51.60
21255;DHT22;10785;50.674;17.954;2023-04-24T05:29:19;14.40;48.70
21255;DHT22;10785;50.674;17.954;2023-04-24T05:31:49;14.40;49.00
21255;DHT22;10785;50.674;17.954;2023-04-24T05:34:18;14.40;51.30
21255;DHT22;10785;50.674;17.954;2023-04-24T05:36:52;14.40;53.80
21255;DHT22;10785;50.674;17.954;2023-04-24T05:39:20;14.40;56.70
21255;DHT22;10785;50.674;17.954;2023-04-24T05:41:49;14.30;60.30
21255;DHT22;10785;50.674;17.954;2023-04-24T05:44:17;14.30;62.90
21255;DHT22;10785;50.674;17.954;2023-04-24T05:46:46;14.30;65.50
21255;DHT22;10785;50.674;17.954;2023-04-24T05:49:17;14.30;64.70
21255;DHT22;10785;50.674;17.954;2023-04-24T05:51:47;14.30;57.80
21255;DHT22;10785;50.674;17.954;2023-04-24T05:54:17;14.30;56.30
21255;DHT22;10785;50.674;17.954;2023-04-24T05:56:45;14.30;56.00
21255;DHT22;10785;50.674;17.954;2023-04-24T05:59:21;14.40;57.20
21255;DHT22;10785;50.674;17.954;2023-04-24T06:01:51;14.40;56.50
21255;DHT22;10785;50.674;17.954;2023-04-24T06:04:23;14.40;55.20
21255;DHT22;10785;50.674;17.954;2023-04-24T06:06:52;14.40;52.80
21255;DHT22;10785;50.674;17.954;2023-04-24T06:09:23;14.40;53.20
21255;DHT22;10785;50.674;17.954;2023-04-24T06:11:52;14.40;52.40
21255;DHT22;10785;50.674;17.954;2023-04-24T06:14:26;14.50;51.40
21255;DHT22;10785;50.674;17.954;2023-04-24T06:17:19;14.60;50.50
21255;DHT22;10785;50.674;17.954;2023-04-24T06:19:51;14.70;45.10
21255;DHT22;10785;50.674;17.954;2023-04-24T06:22:21;14.80;40.70
21255;DHT22;10785;50.674;17.954;2023-04-24T06:24:50;14.90;40.30
21255;DHT22;10785;50.674;17.954;2023-04-24T06:27:19;15.10;38.90
21255;DHT22;10785;50.674;17.954;2023-04-24T06:29:47;15.20;38.50
21255;DHT22;10785;50.674;17.954;2023-04-24T06:32:22;15.40;37.20
21255;DHT22;10785;50.674;17.954;2023-04-24T06:34:52;15.50;35.00
21255;DHT22;10785;50.674;17.954;2023-04-24T06:37:21;15.70;32.40
21255;DHT22;10785;50.674;17.954;2023-04-24T06:39:50;15.80;28.40
21255;DHT22;10785;50.674;17.954;2023-04-24T06:42:18;15.90;30.20
21255;DHT22;10785;50.674;17.954;2023-04-24T06:44:49;15.90;29.00
21255;DHT22;10785;50.674;17.954;2023-04-24T06:47:18;15.90;28.50
21255;DHT22;10785;50.674;17.954;2023-04-24T06:49:47;15.90;29.20
21255;DHT22;10785;50.674;17.954;2023-04-24T06:52:19;15.90;28.70
21255;DHT22;10785;50.674;17.954;2023-04-24T06:54:48;15.80;29.50
21255;DHT22;10785;50.674;17.954;2023-04-24T06:57:17;15.80;29.70
21255;DHT22;10785;50.674;17.954;2023-04-24T06:59:46;15.90;31.10
21255;DHT22;10785;50.674;17.954;2023-04-24T07:02:14;16.00;30.90
21255;DHT22;10785;50.674;17.954;2023-04-24T07:04:43;16.10;29.60
21255;DHT22;10785;50.674;17.954;2023-04-24T07:07:12;16.20;28.40
21255;DHT22;10785;50.674;17.954;2023-04-24T07:09:43;16.20;29.30
21255;DHT22;10785;50.674;17.954;2023-04-24T07:12:12;16.40;28.70
21255;DHT22;10785;50.674;17.954;2023-04-24T07:14:43;16.50;28.90
21255;DHT22;10785;50.674;17.954;2023-04-24T07:17:11;16.60;28.80
21255;DHT22;10785;50.674;17.954;2023-04-24T07:19:41;16.70;29.50
21255;DHT22;10785;50.674;17.954;2023-04-24T07:22:10;16.80;28.50
21255;DHT22;10785;50.674;17.954;2023-04-24T07:24:45;16.80;27.30
21255;DHT22;10785;50.674;17.954;2023-04-24T07:27:14;16.90;28.30
21255;DHT22;10785;50.674;17.954;2023-04-24T07:29:42;17.00;27.50
21255;DHT22;10785;50.674;17.954;2023-04-24T07:32:12;17.00;26.20
21255;DHT22;10785;50.674;17.954;2023-04-24T07:34:40;17.00;26.20
21255;DHT22;10785;50.674;17.954;2023-04-24T07:37:09;17.10;25.10
21255;DHT22;10785;50.674;17.954;2023-04-24T07:39:37;17.20;27.00
21255;DHT22;10785;50.674;17.954;2023-04-24T07:42:07;17.40;23.90
21255;DHT22;10785;50.674;17.954;2023-04-24T07:44:36;17.60;23.60
21255;DHT22;10785;50.674;17.954;2023-04-24T07:47:04;17.80;22.60
21255;DHT22;10785;50.674;17.954;2023-04-24T07:49:33;18.00;21.50
21255;DHT22;10785;50.674;17.954;2023-04-24T07:52:02;18.30;20.50
21255;DHT22;10785;50.674;17.954;2023-04-24T07:54:31;18.50;20.30
21255;DHT22;10785;50.674;17.954;2023-04-24T07:56:59;18.90;19.00
21255;DHT22;10785;50.674;17.954;2023-04-24T07:59:29;19.00;17.10
21255;DHT22;10785;50.674;17.954;2023-04-24T08:01:58;19.10;15.50
21255;DHT22;10785;50.674;17.954;2023-04-24T08:04:28;19.20;15.90
21255;DHT22;10785;50.674;17.954;2023-04-24T08:06:57;19.20;15.60
21255;DHT22;10785;50.674;17.954;2023-04-24T08:09:26;19.10;13.90
21255;DHT22;10785;50.674;17.954;2023-04-24T08:11:54;19.10;15.30
21255;DHT22;10785;50.674;17.954;2023-04-24T08:14:23;19.20;13.20
21255;DHT22;10785;50.674;17.954;2023-04-24T08:16:54;19.30;14.20
21255;DHT22;10785;50.674;17.954;2023-04-24T08:19:23;19.40;12.80
21255;DHT22;10785;50.674;17.954;2023-04-24T08:21:52;19.40;12.70
21255;DHT22;10785;50.674;17.954;2023-04-24T08:24:23;19.20;13.20
21255;DHT22;10785;50.674;17.954;2023-04-24T08:26:51;19.10;13.40
21255;DHT22;10785;50.674;17.954;2023-04-24T08:29:21;18.90;11.40
21255;DHT22;10785;50.674;17.954;2023-04-24T08:31:49;19.10;11.90
21255;DHT22;10785;50.674;17.954;2023-04-24T08:34:19;19.00;15.30
21255;DHT22;10785;50.674;17.954;2023-04-24T08:36:48;18.80;12.20
21255;DHT22;10785;50.674;17.954;2023-04-24T08:39:17;18.90;11.70
21255;DHT22;10785;50.674;17.954;2023-04-24T08:41:48;19.00;11.90
21255;DHT22;10785;50.674;17.954;2023-04-24T08:44:17;18.80;11.70
21255;DHT22;10785;50.674;17.954;2023-04-24T08:46:48;18.80;12.20
21255;DHT22;10785;50.674;17.954;2023-04-24T08:49:20;18.70;13.60
21255;DHT22;10785;50.674;17.954;2023-04-24T08:51:49;18.60;11.80
21255;DHT22;10785;50.674;17.954;2023-04-24T08:54:19;18.40;12.50
21255;DHT22;10785;50.674;17.954;2023-04-24T08:56:48;18.50;12.30
21255;DHT22;10785;50.674;17.954;2023-04-24T08:59:17;18.50;13.80
21255;DHT22;10785;50.674;17.954;2023-04-24T09:01:47;18.40;14.90
21255;DHT22;10785;50.674;17.954;2023-04-24T09:04:17;18.50;12.90
21255;DHT22;10785;50.674;17.954;2023-04-24T09:06:49;18.60;15.80
21255;DHT22;10785;50.674;17.954;2023-04-24T09:09:18;18.60;14.40
21255;DHT22;10785;50.674;17.954;2023-04-24T09:11:47;18.50;14.00
21255;DHT22;10785;50.674;17.954;2023-04-24T09:14:17;18.60;14.00
21255;DHT22;10785;50.674;17.954;2023-04-24T09:16:46;18.90;13.00
21255;DHT22;10785;50.674;17.954;2023-04-24T09:19:15;18.90;12.90
21255;DHT22;10785;50.674;17.954;2023-04-24T09:21:46;18.90;13.40
21255;DHT22;10785;50.674;17.954;2023-04-24T09:24:17;19.00;13.20
21255;DHT22;10785;50.674;17.954;2023-04-24T09:26:48;19.10;13.80
21255;DHT22;10785;50.674;17.954;2023-04-24T09:29:18;19.30;11.60
21255;DHT22;10785;50.674;17.954;2023-04-24T09:31:46;19.60;12.20
21255;DHT22;10785;50.674;17.954;2023-04-24T09:34:21;19.80;8.40
21255;DHT22;10785;50.674;17.954;2023-04-24T09:36:50;19.90;6.70
21255;DHT22;10785;50.674;17.954;2023-04-24T09:39:20;19.80;8.60
21255;DHT22;10785;50.674;17.954;2023-04-24T09:41:50;19.60;9.70
21255;DHT22;10785;50.674;17.954;2023-04-24T09:44:20;19.60;9.30
21255;DHT22;10785;50.674;17.954;2023-04-24T09:46:50;19.80;8.20
21255;DHT22;10785;50.674;17.954;2023-04-24T09:49:22;19.70;8.40
21255;DHT22;10785;50.674;17.954;2023-04-24T09:51:52;19.70;9.70
21255;DHT22;10785;50.674;17.954;2023-04-24T09:54:39;19.90;9.00
21255;DHT22;10785;50.674;17.954;2023-04-24T09:57:08;20.00;7.10
21255;DHT22;10785;50.674;17.954;2023-04-24T09:59:42;20.30;7.60
21255;DHT22;10785;50.674;17.954;2023-04-24T10:02:17;20.40;7.00
21255;DHT22;10785;50.674;17.954;2023-04-24T10:04:54;20.60;4.50
21255;DHT22;10785;50.674;17.954;2023-04-24T10:07:25;20.90;2.70
21255;DHT22;10785;50.674;17.954;2023-04-24T10:09:56;20.90;2.40
21255;DHT22;10785;50.674;17.954;2023-04-24T10:12:25;20.60;1.00
21255;DHT22;10785;50.674;17.954;2023-04-24T10:14:57;20.40;1.40
21255;DHT22;10785;50.674;17.954;2023-04-24T10:17:25;20.40;1.00
21255;DHT22;10785;50.674;17.954;2023-04-24T10:19:55;20.30;1.70
21255;DHT22;10785;50.674;17.954;2023-04-24T10:22:24;20.30;3.10
21255;DHT22;10785;50.674;17.954;2023-04-24T10:24:55;20.30;1.00
21255;DHT22;10785;50.674;17.954;2023-04-24T10:27:25;20.00;1.20
21255;DHT22;10785;50.674;17.954;2023-04-24T10:29:55;19.60;4.30
21255;DHT22;10785;50.674;17.954;2023-04-24T10:32:24;18.90;6.70
21255;DHT22;10785;50.674;17.954;2023-04-24T10:34:53;18.60;10.10
21255;DHT22;10785;50.674;17.954;2023-04-24T10:37:25;18.60;12.70
21255;DHT22;10785;50.674;17.954;2023-04-24T10:39:55;18.30;16.10
21255;DHT22;10785;50.674;17.954;2023-04-24T10:42:24;18.20;16.00
21255;DHT22;10785;50.674;17.954;2023-04-24T10:44:55;18.10;17.60
21255;DHT22;10785;50.674;17.954;2023-04-24T10:47:25;18.00;19.90
21255;DHT22;10785;50.674;17.954;2023-04-24T10:49:54;17.80;21.80
21255;DHT22;10785;50.674;17.954;2023-04-24T10:52:43;17.80;22.60
21255;DHT22;10785;50.674;17.954;2023-04-24T10:55:14;17.70;24.80
21255;DHT22;10785;50.674;17.954;2023-04-24T10:58:01;17.50;28.50
21255;DHT22;10785;50.674;17.954;2023-04-24T11:00:30;17.50;32.20
21255;DHT22;10785;50.674;17.954;2023-04-24T11:02:59;17.40;39.30
21255;DHT22;10785;50.674;17.954;2023-04-24T11:05:50;17.10;46.00
21255;DHT22;10785;50.674;17.954;2023-04-24T11:08:31;17.00;48.80
21255;DHT22;10785;50.674;17.954;2023-04-24T11:11:06;17.20;60.50
21255;DHT22;10785;50.674;17.954;2023-04-24T11:14:01;17.30;62.50
21255;DHT22;10785;50.674;17.954;2023-04-24T11:16:32;17.40;59.90
21255;DHT22;10785;50.674;17.954;2023-04-24T11:19:03;17.30;74.20
21255;DHT22;10785;50.674;17.954;2023-04-24T11:21:39;17.10;67.30
21255;DHT22;10785;50.674;17.954;2023-04-24T11:24:32;17.00;68.50
21255;DHT22;10785;50.674;17.954;2023-04-24T11:27:11;17.00;74.50
21255;DHT22;10785;50.674;17.954;2023-04-24T11:29:42;17.00;73.80
21255;DHT22;10785;50.674;17.954;2023-04-24T11:35:04;17.00;84.20
21255;DHT22;10785;50.674;17.954;2023-04-24T12:07:03;17.80;58.90
21255;DHT22;10785;50.674;17.954;2023-04-24T12:09:43;17.80;60.30
21255;DHT22;10785;50.674;17.954;2023-04-24T12:12:15;18.00;57.60
21255;DHT22;10785;50.674;17.954;2023-04-24T12:14:52;18.00;55.80
21255;DHT22;10785;50.674;17.954;2023-04-24T12:17:25;18.10;60.10
21255;DHT22;10785;50.674;17.954;2023-04-24T12:19:59;18.10;53.30
21255;DHT22;10785;50.674;17.954;2023-04-24T12:22:47;18.30;48.40
21255;DHT22;10785;50.674;17.954;2023-04-24T12:25:17;18.40;47.20
21255;DHT22;10785;50.674;17.954;2023-04-24T12:27:51;18.60;42.70
21255;DHT22;10785;50.674;17.954;2023-04-24T12:30:21;18.50;42.60
21255;DHT22;10785;50.674;17.954;2023-04-24T12:32:50;18.40;41.10
21255;DHT22;10785;50.674;17.954;2023-04-24T12:35:23;18.20;41.00
21255;DHT22;10785;50.674;17.954;2023-04-24T12:37:54;18.20;34.80
21255;DHT22;10785;50.674;17.954;2023-04-24T12:40:25;18.00;34.80
21255;DHT22;10785;50.674;17.954;2023-04-24T12:42:56;18.00;36.70
21255;DHT22;10785;50.674;17.954;2023-04-24T12:45:24;18.10;35.10
21255;DHT22;10785;50.674;17.954;2023-04-24T12:47:55;18.10;31.10
21255;DHT22;10785;50.674;17.954;2023-04-24T12:50:23;18.00;30.80
21255;DHT22;10785;50.674;17.954;2023-04-24T12:52:53;18.20;29.70
21255;DHT22;10785;50.674;17.954;2023-04-24T12:55:22;18.10;29.40
21255;DHT22;10785;50.674;17.954;2023-04-24T12:57:51;17.80;31.10
21255;DHT22;10785;50.674;17.954;2023-04-24T13:00:21;17.50;33.80
21255;DHT22;10785;50.674;17.954;2023-04-24T13:02:49;17.30;42.60
21255;DHT22;10785;50.674;17.954;2023-04-24T13:05:18;17.10;42.80
21255;DHT22;10785;50.674;17.954;2023-04-24T13:07:49;17.00;41.00
21255;DHT22;10785;50.674;17.954;2023-04-24T13:10:19;17.20;42.20
21255;DHT22;10785;50.674;17.954;2023-04-24T13:12:47;17.10;38.70
21255;DHT22;10785;50.674;17.954;2023-04-24T13:15:16;16.90;38.40
21255;DHT22;10785;50.674;17.954;2023-04-24T13:17:45;16.80;40.00
21255;DHT22;10785;50.674;17.954;2023-04-24T13:20:14;16.60;41.30
21255;DHT22;10785;50.674;17.954;2023-04-24T13:22:43;16.60;43.10
21255;DHT22;10785;50.674;17.954;2023-04-24T13:25:12;16.50;49.20
21255;DHT22;10785;50.674;17.954;2023-04-24T13:27:46;16.40;54.40
21255;DHT22;10785;50.674;17.954;2023-04-24T13:30:14;16.30;56.20
21255;DHT22;10785;50.674;17.954;2023-04-24T13:32:43;16.20;58.80
21255;DHT22;10785;50.674;17.954;2023-04-24T13:35:12;16.10;64.90
21255;DHT22;10785;50.674;17.954;2023-04-24T13:37:40;15.80;74.60
21255;DHT22;10785;50.674;17.954;2023-04-24T13:40:11;15.70;80.30
21255;DHT22;10785;50.674;17.954;2023-04-24T13:42:40;15.60;86.60
21255;DHT22;10785;50.674;17.954;2023-04-24T13:45:10;15.50;88.80
21255;DHT22;10785;50.674;17.954;2023-04-24T13:47:51;15.50;91.10
21255;DHT22;10785;50.674;17.954;2023-04-24T13:50:21;15.50;91.90
21255;DHT22;10785;50.674;17.954;2023-04-24T13:52:49;15.50;92.60
21255;DHT22;10785;50.674;17.954;2023-04-24T13:55:18;15.30;94.60
21255;DHT22;10785;50.674;17.954;2023-04-24T13:57:47;15.40;94.80
21255;DHT22;10785;50.674;17.954;2023-04-24T14:00:18;15.30;95.40
21255;DHT22;10785;50.674;17.954;2023-04-24T14:02:47;15.30;96.70
21255;DHT22;10785;50.674;17.954;2023-04-24T14:05:16;15.20;97.40
21255;DHT22;10785;50.674;17.954;2023-04-24T14:07:45;15.20;98.40
21255;DHT22;10785;50.674;17.954;2023-04-24T14:10:14;15.10;99.40
21255;DHT22;10785;50.674;17.954;2023-04-24T14:12:42;15.00;99.90
21255;DHT22;10785;50.674;17.954;2023-04-24T14:15:11;14.70;99.90
21255;DHT22;10785;50.674;17.954;2023-04-24T14:17:42;14.70;99.90
21255;DHT22;10785;50.674;17.954;2023-04-24T14:20:11;14.70;99.90
21255;DHT22;10785;50.674;17.954;2023-04-24T14:22:40;14.50;99.90
21255;DHT22;10785;50.674;17.954;2023-04-24T14:25:09;14.30;99.90
21255;DHT22;10785;50.674;17.954;2023-04-24T14:27:38;14.20;99.90
21255;DHT22;10785;50.674;17.954;2023-04-24T14:30:08;14.30;99.90
21255;DHT22;10785;50.674;17.954;2023-04-24T14:32:38;14.10;99.90
21255;DHT22;10785;50.674;17.954;2023-04-24T14:35:08;14.10;99.90
21255;DHT22;10785;50.674;17.954;2023-04-24T14:37:37;14.10;99.90
21255;DHT22;10785;50.674;17.954;2023-04-24T14:40:09;14.00;99.90
21255;DHT22;10785;50.674;17.954;2023-04-24T14:42:58;13.80;99.90
21255;DHT22;10785;50.674;17.954;2023-04-24T14:45:27;13.70;99.90
21255;DHT22;10785;50.674;17.954;2023-04-24T14:47:55;13.70;99.90
21255;DHT22;10785;50.674;17.954;2023-04-24T14:50:26;13.60;99.90
21255;DHT22;10785;50.674;17.954;2023-04-24T14:52:55;13.50;99.90
21255;DHT22;10785;50.674;17.954;2023-04-24T14:55:25;13.30;99.90
21255;DHT22;10785;50.674;17.954;2023-04-24T15:01:06;13.00;99.90
21255;DHT22;10785;50.674;17.954;2023-04-24T15:03:34;13.00;99.90
21255;DHT22;10785;50.674;17.954;2023-04-24T15:06:05;12.90;99.90
21255;DHT22;10785;50.674;17.954;2023-04-24T15:08:34;12.90;99.90
21255;DHT22;10785;50.674;17.954;2023-04-24T15:11:02;12.80;99.90
21255;DHT22;10785;50.674;17.954;2023-04-24T15:13:31;12.80;99.90
21255;DHT22;10785;50.674;17.954;2023-04-24T15:16:00;12.80;99.90
21255;DHT22;10785;50.674;17.954;2023-04-24T15:18:29;12.80;99.90
21255;DHT22;10785;50.674;17.954;2023-04-24T15:20:58;12.70;99.90
21255;DHT22;10785;50.674;17.954;2023-04-24T15:23:28;12.70;99.90
21255;DHT22;10785;50.674;17.954;2023-04-24T15:25:56;12.70;99.90
21255;DHT22;10785;50.674;17.954;2023-04-24T15:28:25;12.70;99.90
21255;DHT22;10785;50.674;17.954;2023-04-24T15:30:54;12.60;99.90
21255;DHT22;10785;50.674;17.954;2023-04-24T15:33:23;12.60;99.90
21255;DHT22;10785;50.674;17.954;2023-04-24T15:35:53;12.60;99.90
21255;DHT22;10785;50.674;17.954;2023-04-24T15:38:21;12.60;99.90
21255;DHT22;10785;50.674;17.954;2023-04-24T15:40:51;12.60;99.90
21255;DHT22;10785;50.674;17.954;2023-04-24T15:43:20;12.50;99.90
21255;DHT22;10785;50.674;17.954;2023-04-24T15:45:49;12.50;99.90
21255;DHT22;10785;50.674;17.954;2023-04-24T15:48:18;12.50;99.90
21255;DHT22;10785;50.674;17.954;2023-04-24T15:50:47;12.50;99.90
21255;DHT22;10785;50.674;17.954;2023-04-24T15:53:15;12.40;99.90
21255;DHT22;10785;50.674;17.954;2023-04-24T15:55:50;12.50;99.90
21255;DHT22;10785;50.674;17.954;2023-04-24T15:58:20;12.50;99.90
21255;DHT22;10785;50.674;17.954;2023-04-24T16:00:48;12.40;99.90
21255;DHT22;10785;50.674;17.954;2023-04-24T16:03:17;12.50;99.90
21255;DHT22;10785;50.674;17.954;2023-04-24T16:05:46;12.50;99.90
21255;DHT22;10785;50.674;17.954;2023-04-24T16:08:14;12.50;99.90
21255;DHT22;10785;50.674;17.954;2023-04-24T16:10:43;12.50;99.90
21255;DHT22;10785;50.674;17.954;2023-04-24T16:13:14;12.50;99.90
21255;DHT22;10785;50.674;17.954;2023-04-24T16:15:44;12.50;99.90
21255;DHT22;10785;50.674;17.954;2023-04-24T16:18:14;12.50;99.90